sensor_id;sensor_type;location;lat;lon;timestamp;temperature;humidity
12771;DHT22;6449;47.666;9.160;2023-06-10T00:03:49;19.50;99.90
12771;DHT22;6449;47.666;9.160;2023-06-10T00:08:44;19.20;99.90
12771;DHT22;6449;47.666;9.160;2023-06-10T00:13:39;19.10;99.90
12771;DHT22;6449;47.666;9.160;2023-06-10T00:18:34;18.90;99.90
12771;DHT22;6449;47.666;9.160;2023-06-10T00:23:28;18.90;99.90
12771;DHT22;6449;47.666;9.160;2023-06-10T00:28:22;19.20;99.90
12771;DHT22;6449;47.666;9.160;2023-06-10T00:33:16;19.20;99.90
12771;DHT22;6449;47.666;9.160;2023-06-10T00:38:10;18.90;99.90
12771;DHT22;6449;47.666;9.160;2023-06-10T00:43:06;18.60;99.90
12771;DHT22;6449;47.666;9.160;2023-06-10T00:47:59;18.80;99.90
12771;DHT22;6449;47.666;9.160;2023-06-10T00:52:54;18.90;99.90
12771;DHT22;6449;47.666;9.160;2023-06-10T00:57:50;18.80;99.90
12771;DHT22;6449;47.666;9.160;2023-06-10T01:02:44;18.70;99.90
12771;DHT22;6449;47.666;9.160;2023-06-10T01:07:40;18.70;99.90
12771;DHT22;6449;47.666;9.160;2023-06-10T01:12:41;18.20;99.90
12771;DHT22;6449;47.666;9.160;2023-06-10T01:17:55;18.10;99.90
12771;DHT22;6449;47.666;9.160;2023-06-10T01:22:51;18.30;99.90
12771;DHT22;6449;47.666;9.160;2023-06-10T01:27:47;18.20;99.90
12771;DHT22;6449;47.666;9.160;2023-06-10T01:32:46;18.10;99.90
12771;DHT22;6449;47.666;9.160;2023-06-10T01:37:46;17.80;99.90
12771;DHT22;6449;47.666;9.160;2023-06-10T01:42:42;17.70;99.90
12771;DHT22;6449;47.666;9.160;2023-06-10T01:47:36;17.60;99.90
12771;DHT22;6449;47.666;9.160;2023-06-10T01:52:29;17.50;99.90
12771;DHT22;6449;47.666;9.160;2023-06-10T01:57:23;17.30;99.90
12771;DHT22;6449;47.666;9.160;2023-06-10T02:02:19;17.60;99.90
12771;DHT22;6449;47.666;9.160;2023-06-10T02:07:13;17.50;99.90
12771;DHT22;6449;47.666;9.160;2023-06-10T02:12:08;17.40;99.90
12771;DHT22;6449;47.666;9.160;2023-06-10T02:17:02;17.20;99.90
12771;DHT22;6449;47.666;9.160;2023-06-10T02:21:57;17.00;99.90
12771;DHT22;6449;47.666;9.160;2023-06-10T02:26:51;17.10;99.90
12771;DHT22;6449;47.666;9.160;2023-06-10T02:31:45;17.10;99.90
12771;DHT22;6449;47.666;9.160;2023-06-10T02:36:38;17.20;99.90
12771;DHT22;6449;47.666;9.160;2023-06-10T02:41:33;17.00;99.90
12771;DHT22;6449;47.666;9.160;2023-06-10T02:46:26;17.00;99.90
12771;DHT22;6449;47.666;9.160;2023-06-10T02:51:21;17.00;99.90
12771;DHT22;6449;47.666;9.160;2023-06-10T02:56:16;16.80;99.90
12771;DHT22;6449;47.666;9.160;2023-06-10T03:01:12;17.00;99.90
12771;DHT22;6449;47.666;9.160;2023-06-10T03:06:05;16.80;99.90
12771;DHT22;6449;47.666;9.160;2023-06-10T03:11:00;16.60;99.90
12771;DHT22;6449;47.666;9.160;2023-06-10T03:15:53;16.30;99.90
12771;DHT22;6449;47.666;9.160;2023-06-10T03:20:48;16.10;99.90
12771;DHT22;6449;47.666;9.160;2023-06-10T03:25:43;16.30;99.90
12771;DHT22;6449;47.666;9.160;2023-06-10T03:30:37;16.40;99.90
12771;DHT22;6449;47.666;9.160;2023-06-10T03:35:30;16.50;99.90
12771;DHT22;6449;47.666;9.160;2023-06-10T03:40:25;16.50;99.90
12771;DHT22;6449;47.666;9.160;2023-06-10T03:45:19;16.60;99.90
12771;DHT22;6449;47.666;9.160;2023-06-10T03:50:12;16.50;99.90
12771;DHT22;6449;47.666;9.160;2023-06-10T03:55:07;16.50;99.90
12771;DHT22;6449;47.666;9.160;2023-06-10T04:00:03;16.50;99.90
12771;DHT22;6449;47.666;9.160;2023-06-10T04:05:00;16.50;99.90
12771;DHT22;6449;47.666;9.160;2023-06-10T04:09:54;16.60;99.90
12771;DHT22;6449;47.666;9.160;2023-06-10T04:14:47;16.80;99.90
12771;DHT22;6449;47.666;9.160;2023-06-10T04:19:42;16.80;99.90
12771;DHT22;6449;47.666;9.160;2023-06-10T04:24:35;16.70;99.90
12771;DHT22;6449;47.666;9.160;2023-06-10T04:29:29;16.70;99.90
12771;DHT22;6449;47.666;9.160;2023-06-10T04:34:22;16.70;99.90
12771;DHT22;6449;47.666;9.160;2023-06-10T04:39:18;16.90;99.90
12771;DHT22;6449;47.666;9.160;2023-06-10T04:44:12;17.20;99.90
12771;DHT22;6449;47.666;9.160;2023-06-10T04:49:05;17.40;99.90
12771;DHT22;6449;47.666;9.160;2023-06-10T04:53:59;17.70;99.90
12771;DHT22;6449;47.666;9.160;2023-06-10T04:58:55;17.90;99.90
12771;DHT22;6449;47.666;9.160;2023-06-10T05:03:49;18.20;99.90
12771;DHT22;6449;47.666;9.160;2023-06-10T05:08:43;18.40;99.90
12771;DHT22;6449;47.666;9.160;2023-06-10T05:13:36;18.60;99.90
12771;DHT22;6449;47.666;9.160;2023-06-10T05:18:33;18.70;99.90
12771;DHT22;6449;47.666;9.160;2023-06-10T05:23:27;18.90;99.90
12771;DHT22;6449;47.666;9.160;2023-06-10T05:28:20;19.20;99.90
12771;DHT22;6449;47.666;9.160;2023-06-10T05:33:14;19.30;99.90
12771;DHT22;6449;47.666;9.160;2023-06-10T05:38:08;19.10;99.90
12771;DHT22;6449;47.666;9.160;2023-06-10T05:43:02;19.10;99.90
12771;DHT22;6449;47.666;9.160;2023-06-10T05:47:55;18.90;99.90
12771;DHT22;6449;47.666;9.160;2023-06-10T05:52:48;19.00;99.90
12771;DHT22;6449;47.666;9.160;2023-06-10T05:57:45;19.10;99.90
12771;DHT22;6449;47.666;9.160;2023-06-10T06:02:38;19.10;99.90
12771;DHT22;6449;47.666;9.160;2023-06-10T06:07:32;19.20;99.90
12771;DHT22;6449;47.666;9.160;2023-06-10T06:12:26;19.30;99.90
12771;DHT22;6449;47.666;9.160;2023-06-10T06:17:20;19.50;99.90
12771;DHT22;6449;47.666;9.160;2023-06-10T06:22:14;19.20;99.90
12771;DHT22;6449;47.666;9.160;2023-06-10T06:27:12;18.70;99.90
12771;DHT22;6449;47.666;9.160;2023-06-10T06:32:06;18.50;99.90
12771;DHT22;6449;47.666;9.160;2023-06-10T06:37:01;18.60;99.90
12771;DHT22;6449;47.666;9.160;2023-06-10T06:41:54;18.70;99.90
12771;DHT22;6449;47.666;9.160;2023-06-10T06:46:48;18.90;99.90
12771;DHT22;6449;47.666;9.160;2023-06-10T06:51:41;19.00;99.90
12771;DHT22;6449;47.666;9.160;2023-06-10T06:56:36;19.10;99.90
12771;DHT22;6449;47.666;9.160;2023-06-10T07:01:30;19.30;99.90
12771;DHT22;6449;47.666;9.160;2023-06-10T07:06:23;19.50;99.90
12771;DHT22;6449;47.666;9.160;2023-06-10T07:11:17;19.90;99.90
12771;DHT22;6449;47.666;9.160;2023-06-10T07:16:12;20.10;99.90
12771;DHT22;6449;47.666;9.160;2023-06-10T07:21:06;20.30;99.90
12771;DHT22;6449;47.666;9.160;2023-06-10T07:25:59;20.50;99.90
12771;DHT22;6449;47.666;9.160;2023-06-10T07:30:52;20.70;99.90
12771;DHT22;6449;47.666;9.160;2023-06-10T07:35:47;20.90;99.90
12771;DHT22;6449;47.666;9.160;2023-06-10T07:40:41;21.20;99.90
12771;DHT22;6449;47.666;9.160;2023-06-10T07:45:34;21.10;99.90
12771;DHT22;6449;47.666;9.160;2023-06-10T07:50:28;21.40;99.90
12771;DHT22;6449;47.666;9.160;2023-06-10T07:55:22;21.50;99.90
12771;DHT22;6449;47.666;9.160;2023-06-10T08:00:18;21.40;99.90
12771;DHT22;6449;47.666;9.160;2023-06-10T08:05:12;21.50;99.90
12771;DHT22;6449;47.666;9.160;2023-06-10T08:10:07;21.80;99.90
12771;DHT22;6449;47.666;9.160;2023-06-10T08:15:03;22.10;99.90
12771;DHT22;6449;47.666;9.160;2023-06-10T08:19:57;22.50;99.90
12771;DHT22;6449;47.666;9.160;2023-06-10T08:24:51;22.70;99.90
12771;DHT22;6449;47.666;9.160;2023-06-10T08:29:44;22.60;99.90
12771;DHT22;6449;47.666;9.160;2023-06-10T08:34:39;23.00;99.90
12771;DHT22;6449;47.666;9.160;2023-06-10T08:39:32;23.20;99.90
12771;DHT22;6449;47.666;9.160;2023-06-10T08:44:28;23.20;99.90
12771;DHT22;6449;47.666;9.160;2023-06-10T08:49:23;22.90;99.90
12771;DHT22;6449;47.666;9.160;2023-06-10T08:54:22;23.00;99.90
12771;DHT22;6449;47.666;9.160;2023-06-10T08:59:20;23.10;99.90
12771;DHT22;6449;47.666;9.160;2023-06-10T09:04:14;23.40;99.90
12771;DHT22;6449;47.666;9.160;2023-06-10T09:09:10;23.80;99.90
12771;DHT22;6449;47.666;9.160;2023-06-10T09:14:06;24.20;99.90
12771;DHT22;6449;47.666;9.160;2023-06-10T09:19:00;24.00;99.90
12771;DHT22;6449;47.666;9.160;2023-06-10T09:23:59;23.90;99.90
12771;DHT22;6449;47.666;9.160;2023-06-10T09:29:02;24.00;99.90
12771;DHT22;6449;47.666;9.160;2023-06-10T09:34:07;24.20;99.90
12771;DHT22;6449;47.666;9.160;2023-06-10T09:39:01;24.30;99.90
12771;DHT22;6449;47.666;9.160;2023-06-10T09:43:55;24.60;99.90
12771;DHT22;6449;47.666;9.160;2023-06-10T09:48:49;24.80;99.90
12771;DHT22;6449;47.666;9.160;2023-06-10T09:53:48;25.10;99.90
12771;DHT22;6449;47.666;9.160;2023-06-10T09:58:42;24.70;99.90
12771;DHT22;6449;47.666;9.160;2023-06-10T10:03:44;24.90;99.90
12771;DHT22;6449;47.666;9.160;2023-06-10T10:08:39;25.30;99.90
12771;DHT22;6449;47.666;9.160;2023-06-10T10:13:34;25.60;99.90
12771;DHT22;6449;47.666;9.160;2023-06-10T10:18:29;25.80;99.90
12771;DHT22;6449;47.666;9.160;2023-06-10T10:23:29;26.00;99.90
12771;DHT22;6449;47.666;9.160;2023-06-10T10:28:37;25.80;99.90
12771;DHT22;6449;47.666;9.160;2023-06-10T10:33:40;25.80;99.90
12771;DHT22;6449;47.666;9.160;2023-06-10T10:38:39;26.20;99.90
12771;DHT22;6449;47.666;9.160;2023-06-10T10:43:33;26.20;99.90
12771;DHT22;6449;47.666;9.160;2023-06-10T10:48:33;26.30;99.90
12771;DHT22;6449;47.666;9.160;2023-06-10T10:53:30;26.50;99.90
12771;DHT22;6449;47.666;9.160;2023-06-10T10:58:24;26.70;99.90
12771;DHT22;6449;47.666;9.160;2023-06-10T11:03:19;26.80;99.90
12771;DHT22;6449;47.666;9.160;2023-06-10T11:08:13;26.80;99.90
12771;DHT22;6449;47.666;9.160;2023-06-10T11:13:08;26.80;99.90
12771;DHT22;6449;47.666;9.160;2023-06-10T11:18:23;27.00;99.90
12771;DHT22;6449;47.666;9.160;2023-06-10T11:23:39;27.10;99.90
12771;DHT22;6449;47.666;9.160;2023-06-10T11:28:35;27.40;99.90
12771;DHT22;6449;47.666;9.160;2023-06-10T11:33:30;27.60;99.90
12771;DHT22;6449;47.666;9.160;2023-06-10T11:38:24;27.60;99.90
12771;DHT22;6449;47.666;9.160;2023-06-10T11:43:19;27.60;99.90
12771;DHT22;6449;47.666;9.160;2023-06-10T11:48:13;27.20;99.90
12771;DHT22;6449;47.666;9.160;2023-06-10T11:53:08;27.40;99.90
12771;DHT22;6449;47.666;9.160;2023-06-10T11:58:01;27.50;99.90
12771;DHT22;6449;47.666;9.160;2023-06-10T12:02:56;27.50;99.90
12771;DHT22;6449;47.666;9.160;2023-06-10T12:08:10;27.50;99.90
12771;DHT22;6449;47.666;9.160;2023-06-10T12:13:05;27.50;99.90
12771;DHT22;6449;47.666;9.160;2023-06-10T12:17:58;27.50;99.90
12771;DHT22;6449;47.666;9.160;2023-06-10T12:22:52;27.60;99.90
12771;DHT22;6449;47.666;9.160;2023-06-10T12:27:52;27.20;99.90
12771;DHT22;6449;47.666;9.160;2023-06-10T12:32:47;26.90;99.90
12771;DHT22;6449;47.666;9.160;2023-06-10T12:37:42;26.90;99.90
12771;DHT22;6449;47.666;9.160;2023-06-10T12:42:35;26.90;99.90
12771;DHT22;6449;47.666;9.160;2023-06-10T12:47:32;26.80;99.90
12771;DHT22;6449;47.666;9.160;2023-06-10T12:52:27;27.00;99.90
12771;DHT22;6449;47.666;9.160;2023-06-10T12:57:20;26.90;99.90
12771;DHT22;6449;47.666;9.160;2023-06-10T13:02:13;26.90;99.90
12771;DHT22;6449;47.666;9.160;2023-06-10T13:07:08;26.90;99.90
12771;DHT22;6449;47.666;9.160;2023-06-10T13:12:02;26.90;99.90
12771;DHT22;6449;47.666;9.160;2023-06-10T13:16:57;26.90;99.90
12771;DHT22;6449;47.666;9.160;2023-06-10T13:21:51;26.70;99.90
12771;DHT22;6449;47.666;9.160;2023-06-10T13:26:49;26.60;99.90
12771;DHT22;6449;47.666;9.160;2023-06-10T13:31:42;26.70;99.90
12771;DHT22;6449;47.666;9.160;2023-06-10T13:36:36;26.80;99.90
12771;DHT22;6449;47.666;9.160;2023-06-10T13:41:29;26.70;99.90
12771;DHT22;6449;47.666;9.160;2023-06-10T13:46:24;26.50;99.90
12771;DHT22;6449;47.666;9.160;2023-06-10T13:51:18;26.50;99.90
12771;DHT22;6449;47.666;9.160;2023-06-10T13:56:11;26.40;99.90
12771;DHT22;6449;47.666;9.160;2023-06-10T14:01:06;26.50;99.90
12771;DHT22;6449;47.666;9.160;2023-06-10T14:06:01;26.60;99.90
12771;DHT22;6449;47.666;9.160;2023-06-10T14:10:55;26.60;99.90
12771;DHT22;6449;47.666;9.160;2023-06-10T14:15:48;26.70;99.90
12771;DHT22;6449;47.666;9.160;2023-06-10T14:20:41;26.40;99.90
12771;DHT22;6449;47.666;9.160;2023-06-10T14:25:36;26.40;99.90
12771;DHT22;6449;47.666;9.160;2023-06-10T14:30:33;26.50;99.90
12771;DHT22;6449;47.666;9.160;2023-06-10T14:35:26;26.60;99.90
12771;DHT22;6449;47.666;9.160;2023-06-10T14:40:20;26.70;99.80
12771;DHT22;6449;47.666;9.160;2023-06-10T14:45:17;26.70;99.90
12771;DHT22;6449;47.666;9.160;2023-06-10T14:50:10;26.60;99.90
12771;DHT22;6449;47.666;9.160;2023-06-10T14:55:04;26.60;99.90
12771;DHT22;6449;47.666;9.160;2023-06-10T14:59:58;26.60;99.90
12771;DHT22;6449;47.666;9.160;2023-06-10T15:04:54;26.60;99.90
12771;DHT22;6449;47.666;9.160;2023-06-10T15:09:47;26.50;99.90
12771;DHT22;6449;47.666;9.160;2023-06-10T15:14:40;26.60;99.90
12771;DHT22;6449;47.666;9.160;2023-06-10T15:19:34;26.60;99.90
12771;DHT22;6449;47.666;9.160;2023-06-10T15:24:28;26.70;99.90
12771;DHT22;6449;47.666;9.160;2023-06-10T15:29:22;26.60;99.70
12771;DHT22;6449;47.666;9.160;2023-06-10T15:34:15;26.60;99.90
12771;DHT22;6449;47.666;9.160;2023-06-10T15:39:09;26.60;99.90
12771;DHT22;6449;47.666;9.160;2023-06-10T15:44:04;26.50;99.90
12771;DHT22;6449;47.666;9.160;2023-06-10T15:48:57;26.30;99.90
12771;DHT22;6449;47.666;9.160;2023-06-10T15:53:50;26.40;99.90
12771;DHT22;6449;47.666;9.160;2023-06-10T15:58:44;26.30;99.90
12771;DHT22;6449;47.666;9.160;2023-06-10T16:03:39;26.40;99.90
12771;DHT22;6449;47.666;9.160;2023-06-10T16:08:34;26.40;99.90
12771;DHT22;6449;47.666;9.160;2023-06-10T16:13:27;26.40;99.90
12771;DHT22;6449;47.666;9.160;2023-06-10T16:18:21;26.30;99.90
12771;DHT22;6449;47.666;9.160;2023-06-10T16:23:15;26.30;99.90
12771;DHT22;6449;47.666;9.160;2023-06-10T16:28:09;26.20;99.90
12771;DHT22;6449;47.666;9.160;2023-06-10T16:33:02;26.30;99.90
12771;DHT22;6449;47.666;9.160;2023-06-10T16:37:56;26.40;99.90
12771;DHT22;6449;47.666;9.160;2023-06-10T16:42:55;26.20;99.90
12771;DHT22;6449;47.666;9.160;2023-06-10T16:47:48;26.20;99.90
12771;DHT22;6449;47.666;9.160;2023-06-10T16:52:42;26.30;99.90
12771;DHT22;6449;47.666;9.160;2023-06-10T16:57:35;26.20;99.90
12771;DHT22;6449;47.666;9.160;2023-06-10T17:02:30;26.20;99.90
12771;DHT22;6449;47.666;9.160;2023-06-10T17:07:26;26.20;99.90
12771;DHT22;6449;47.666;9.160;2023-06-10T17:12:20;26.20;99.90
12771;DHT22;6449;47.666;9.160;2023-06-10T17:17:13;26.10;99.90
12771;DHT22;6449;47.666;9.160;2023-06-10T17:22:08;25.90;99.90
12771;DHT22;6449;47.666;9.160;2023-06-10T17:27:10;25.80;99.90
12771;DHT22;6449;47.666;9.160;2023-06-10T17:32:04;25.60;99.90
12771;DHT22;6449;47.666;9.160;2023-06-10T17:36:57;25.50;99.90
12771;DHT22;6449;47.666;9.160;2023-06-10T17:41:52;25.40;99.90
12771;DHT22;6449;47.666;9.160;2023-06-10T17:46:46;25.30;99.90
12771;DHT22;6449;47.666;9.160;2023-06-10T17:51:40;25.30;99.90
12771;DHT22;6449;47.666;9.160;2023-06-10T17:56:33;25.30;99.90
12771;DHT22;6449;47.666;9.160;2023-06-10T18:01:28;25.30;99.90
12771;DHT22;6449;47.666;9.160;2023-06-10T18:06:21;25.30;99.90
12771;DHT22;6449;47.666;9.160;2023-06-10T18:11:15;25.30;99.90
12771;DHT22;6449;47.666;9.160;2023-06-10T18:16:08;25.10;99.90
12771;DHT22;6449;47.666;9.160;2023-06-10T18:21:03;25.10;99.90
12771;DHT22;6449;47.666;9.160;2023-06-10T18:25:58;25.00;99.90
12771;DHT22;6449;47.666;9.160;2023-06-10T18:30:51;24.90;99.90
12771;DHT22;6449;47.666;9.160;2023-06-10T18:35:45;24.80;99.90
12771;DHT22;6449;47.666;9.160;2023-06-10T18:40:39;24.70;99.90
12771;DHT22;6449;47.666;9.160;2023-06-10T18:45:33;24.70;99.90
12771;DHT22;6449;47.666;9.160;2023-06-10T18:50:27;24.60;99.90
12771;DHT22;6449;47.666;9.160;2023-06-10T18:55:20;24.50;99.90
12771;DHT22;6449;47.666;9.160;2023-06-10T19:00:16;24.50;99.90
12771;DHT22;6449;47.666;9.160;2023-06-10T19:05:09;24.30;99.90
12771;DHT22;6449;47.666;9.160;2023-06-10T19:10:05;24.20;99.90
12771;DHT22;6449;47.666;9.160;2023-06-10T19:14:59;24.20;99.90
12771;DHT22;6449;47.666;9.160;2023-06-10T19:19:54;24.00;99.90
12771;DHT22;6449;47.666;9.160;2023-06-10T19:24:58;24.00;99.90
12771;DHT22;6449;47.666;9.160;2023-06-10T19:29:52;23.80;99.90
12771;DHT22;6449;47.666;9.160;2023-06-10T19:34:46;23.90;99.90
12771;DHT22;6449;47.666;9.160;2023-06-10T19:39:41;23.70;99.90
12771;DHT22;6449;47.666;9.160;2023-06-10T19:44:35;23.60;99.90
12771;DHT22;6449;47.666;9.160;2023-06-10T19:49:28;23.40;99.90
12771;DHT22;6449;47.666;9.160;2023-06-10T19:54:22;23.30;99.90
12771;DHT22;6449;47.666;9.160;2023-06-10T19:59:16;23.30;99.90
12771;DHT22;6449;47.666;9.160;2023-06-10T20:04:10;23.20;99.90
12771;DHT22;6449;47.666;9.160;2023-06-10T20:09:03;23.20;99.90
12771;DHT22;6449;47.666;9.160;2023-06-10T20:13:57;23.30;99.90
12771;DHT22;6449;47.666;9.160;2023-06-10T20:18:52;23.10;99.90
12771;DHT22;6449;47.666;9.160;2023-06-10T20:23:45;22.90;99.90
12771;DHT22;6449;47.666;9.160;2023-06-10T20:28:39;23.00;99.90
12771;DHT22;6449;47.666;9.160;2023-06-10T20:33:32;22.90;99.90
12771;DHT22;6449;47.666;9.160;2023-06-10T20:38:27;23.00;99.90
12771;DHT22;6449;47.666;9.160;2023-06-10T20:43:20;22.90;99.90
12771;DHT22;6449;47.666;9.160;2023-06-10T20:48:14;22.90;99.90
12771;DHT22;6449;47.666;9.160;2023-06-10T20:53:08;22.90;99.90
12771;DHT22;6449;47.666;9.160;2023-06-10T20:58:02;22.70;99.90
12771;DHT22;6449;47.666;9.160;2023-06-10T21:02:56;22.90;99.90
12771;DHT22;6449;47.666;9.160;2023-06-10T21:07:49;23.00;99.90
12771;DHT22;6449;47.666;9.160;2023-06-10T21:12:42;22.90;99.90
12771;DHT22;6449;47.666;9.160;2023-06-10T21:17:37;22.90;99.90
12771;DHT22;6449;47.666;9.160;2023-06-10T21:22:31;22.70;99.90
12771;DHT22;6449;47.666;9.160;2023-06-10T21:27:24;22.60;99.90
12771;DHT22;6449;47.666;9.160;2023-06-10T21:32:18;22.60;99.90
12771;DHT22;6449;47.666;9.160;2023-06-10T21:37:12;22.70;99.90
12771;DHT22;6449;47.666;9.160;2023-06-10T21:42:07;22.80;99.90
12771;DHT22;6449;47.666;9.160;2023-06-10T21:47:02;22.60;99.90
12771;DHT22;6449;47.666;9.160;2023-06-10T21:51:56;22.50;99.90
12771;DHT22;6449;47.666;9.160;2023-06-10T21:56:50;22.50;99.90
12771;DHT22;6449;47.666;9.160;2023-06-10T22:01:44;22.50;99.90
12771;DHT22;6449;47.666;9.160;2023-06-10T22:06:37;22.50;99.90
12771;DHT22;6449;47.666;9.160;2023-06-10T22:11:31;22.20;99.90
12771;DHT22;6449;47.666;9.160;2023-06-10T22:16:26;22.20;99.90
12771;DHT22;6449;47.666;9.160;2023-06-10T22:21:19;22.20;99.90
12771;DHT22;6449;47.666;9.160;2023-06-10T22:26:14;22.30;99.90
12771;DHT22;6449;47.666;9.160;2023-06-10T22:31:08;22.40;99.90
12771;DHT22;6449;47.666;9.160;2023-06-10T22:36:03;22.10;99.90
12771;DHT22;6449;47.666;9.160;2023-06-10T22:40:56;22.00;99.90
12771;DHT22;6449;47.666;9.160;2023-06-10T22:45:50;22.00;99.90
12771;DHT22;6449;47.666;9.160;2023-06-10T22:50:43;21.80;99.90
12771;DHT22;6449;47.666;9.160;2023-06-10T22:55:38;21.70;99.90
12771;DHT22;6449;47.666;9.160;2023-06-10T23:00:31;21.90;99.90
12771;DHT22;6449;47.666;9.160;2023-06-10T23:05:25;21.90;99.90
12771;DHT22;6449;47.666;9.160;2023-06-10T23:10:19;21.80;99.90
12771;DHT22;6449;47.666;9.160;2023-06-10T23:15:13;21.90;99.90
12771;DHT22;6449;47.666;9.160;2023-06-10T23:20:08;22.00;99.90
12771;DHT22;6449;47.666;9.160;2023-06-10T23:25:03;21.80;99.90
12771;DHT22;6449;47.666;9.160;2023-06-10T23:29:56;21.70;99.90
12771;DHT22;6449;47.666;9.160;2023-06-10T23:34:53;21.70;99.90
12771;DHT22;6449;47.666;9.160;2023-06-10T23:39:46;21.80;99.90
12771;DHT22;6449;47.666;9.160;2023-06-10T23:44:40;21.70;99.90
12771;DHT22;6449;47.666;9.160;2023-06-10T23:49:33;21.70;99.90
12771;DHT22;6449;47.666;9.160;2023-06-10T23:54:28;21.70;99.90
12771;DHT22;6449;47.666;9.160;2023-06-10T23:59:21;21.70;99.90
